메인 페이지
METAR-TAF:

METAR-TAF

공항 :

두바이 국제공항

두바이, 아랍에미리트

위도: 25-15-10N, 경도: 055-21-52E, 고도: 8m

현재 날씨관측

예보는 47분 전, 23:00시(UTC)에 발표되었습니다.
4kt
온도 24°C
습도 54%
기압 1008 hPa
시정 10km 이상
1500m 미만 상공 구름 및 적란운 없음

METAR: OMDB 182300Z 08004KT CAVOK 24/14 Q1008 NOSIG

시각: 03:47 (23:47 UTC)

예보

예보는 47분 전, 23:00시(UTC)에 발표되었습니다.
예보 대상 시간: 19일 00시부터 20일 06시까지 (UTC)
남남동5kt
시정: 8000m
확률 30%
19일 01시부터 19일 05시까지 (UTC)
시정: 4000m
연무
전환 중
19일 08시부터 19일 10시까지 (UTC)
북서10kt
전환 중
19일 17시부터 19일 19시까지 (UTC)
5kt

TAF: OMDB 182300Z 1900/2006 16005KT 8000 NSC PROB30 1901/1905 4000 HZ BECMG 1908/1910 32010KT BECMG 1917/1919 10005KT

4,000개 이상의 공항 관측 자료 및 예보 (METAR 및 TAF 보고).

지도상에서 검색 가능한 기상관측소가 노란 점과 빨간 점으로 표시되어 있습니다.

기상관측소 명을 보려면 표시 위로 마우스를 이동하세요.

날씨 관측과 예보를 보려면 클릭하세요.

지도 변경 : 확대하려면 엑스 표시가 있는 녹색 버튼, 축소하려면 빼기 표시가 있는 녹색 버튼, 다음 페이지의 지도를 보려면 녹색 화살표를 클릭하세요.


METAR-TAF: